Time;durP1;ratioP1;P1;durP2;ratioP2;P2;SDS_P1;SDS_P2;PMS_P1;PMS_P2;Temp;Humidity;BMP_temperature;BMP_pressure;BME280_temperature;BME280_humidity;BME280_pressure;Samples;Min_cycle;Max_cycle;Signal;HPM_P1;HPM_P2
2022/04/21 00:01:39;;;;;;;28.00;19.05;;;;;;;;;;5035529;28;20056;-71
2022/04/21 00:04:04;;;;;;;29.17;18.08;;;;;;;;;;5035340;28;20032;-71
2022/04/21 00:06:29;;;;;;;26.20;17.30;;;;;;;;;;5034871;28;20465;-70
2022/04/21 00:08:55;;;;;;;26.88;17.75;;;;;;;;;;5034881;28;20256;-71
2022/04/21 00:11:21;;;;;;;25.20;16.92;;;;;;;;;;5017180;28;20018;-70
2022/04/21 00:13:46;;;;;;;26.98;16.83;;;;;;;;;;5017080;28;20530;-70
2022/04/21 00:16:12;;;;;;;23.63;15.90;;;;;;;;;;5034978;28;20025;-70
2022/04/21 00:18:38;;;;;;;24.95;15.25;;;;;;;;;;5035030;28;20068;-71
2022/04/21 00:21:04;;;;;;;23.45;14.88;;;;;;;;;;5034676;28;20075;-71
2022/04/21 00:23:30;;;;;;;22.13;15.32;;;;;;;;;;5034651;28;20030;-71
2022/04/21 00:25:58;;;;;;;24.77;15.70;;;;;;;;;;5035046;28;20041;-69
2022/04/21 00:28:24;;;;;;;23.30;14.90;;;;;;;;;;5033849;28;20036;-71
2022/04/21 00:30:50;;;;;;;22.70;14.68;;;;;;;;;;5017215;28;20025;-70
2022/04/21 00:33:16;;;;;;;22.80;14.57;;;;;;;;;;5016507;28;20056;-70
2022/04/21 00:35:41;;;;;;;21.98;15.20;;;;;;;;;;5034402;28;20113;-70
2022/04/21 00:38:07;;;;;;;23.73;15.43;;;;;;;;;;5034475;28;20567;-71
2022/04/21 00:40:32;;;;;;;19.58;14.68;;;;;;;;;;5016335;28;20018;-70
2022/04/21 00:43:00;;;;;;;21.65;14.65;;;;;;;;;;5034425;28;20033;-71
2022/04/21 00:45:25;;;;;;;20.38;14.65;;;;;;;;;;5034822;28;20104;-73
2022/04/21 00:47:52;;;;;;;21.48;15.65;;;;;;;;;;5016657;28;20520;-73
2022/04/21 00:50:18;;;;;;;21.52;14.65;;;;;;;;;;5034511;28;20017;-73
2022/04/21 00:52:44;;;;;;;23.52;15.07;;;;;;;;;;5016271;28;20025;-73
2022/04/21 00:55:10;;;;;;;20.13;14.73;;;;;;;;;;5034323;28;20028;-73
2022/04/21 00:57:36;;;;;;;19.38;14.57;;;;;;;;;;5034088;28;20026;-78
2022/04/21 01:00:03;;;;;;;23.65;15.38;;;;;;;;;;5032635;28;20099;-77
2022/04/21 01:02:47;;;;;;;23.15;15.10;;;;;;;;;;5016087;28;20088;-78
2022/04/21 01:05:13;;;;;;;23.75;15.25;;;;;;;;;;5033683;28;20037;-74
2022/04/21 01:07:39;;;;;;;24.90;15.82;;;;;;;;;;5015882;28;20484;-73
2022/04/21 01:10:04;;;;;;;24.73;16.20;;;;;;;;;;5016144;28;20029;-72
2022/04/21 01:12:30;;;;;;;22.88;15.65;;;;;;;;;;5034138;28;20093;-72
2022/04/21 01:14:56;;;;;;;23.17;15.52;;;;;;;;;;5015655;28;20029;-73
2022/04/21 01:17:35;;;;;;;22.15;15.00;;;;;;;;;;5016126;28;20029;-73
2022/04/21 01:20:00;;;;;;;20.73;14.32;;;;;;;;;;5033507;28;20036;-73
2022/04/21 01:22:27;;;;;;;22.02;14.60;;;;;;;;;;5033815;28;20560;-72
2022/04/21 01:24:52;;;;;;;24.30;14.88;;;;;;;;;;5034054;28;20401;-72
2022/04/21 01:27:17;;;;;;;22.30;14.48;;;;;;;;;;5015699;28;20084;-72
2022/04/21 01:29:43;;;;;;;20.77;14.48;;;;;;;;;;5032053;28;20025;-73
2022/04/21 01:32:09;;;;;;;23.33;15.73;;;;;;;;;;5016292;28;20026;-72
2022/04/21 01:34:35;;;;;;;23.58;15.55;;;;;;;;;;5033130;28;20045;-72
2022/04/21 01:42:28;;;;;;;30.00;18.58;;;;;;;;;;5020026;28;20029;-70
2022/04/21 01:44:53;;;;;;;25.85;19.48;;;;;;;;;;5037784;28;20083;-70
2022/04/21 01:47:18;;;;;;;27.80;20.02;;;;;;;;;;5036439;28;20045;-70
2022/04/21 01:49:44;;;;;;;27.55;19.08;;;;;;;;;;5037803;28;20056;-70
2022/04/21 01:52:09;;;;;;;25.55;18.52;;;;;;;;;;5037454;28;20416;-71
2022/04/21 01:54:37;;;;;;;25.77;19.13;;;;;;;;;;5037641;28;20018;-74
2022/04/21 01:57:03;;;;;;;25.23;18.35;;;;;;;;;;5036218;28;20263;-74
2022/04/21 01:59:29;;;;;;;24.45;18.15;;;;;;;;;;5037662;28;20030;-74
2022/04/21 02:01:54;;;;;;;28.63;18.08;;;;;;;;;;5020024;28;20033;-74
2022/04/21 02:04:21;;;;;;;25.33;17.30;;;;;;;;;;5037253;28;20128;-74
2022/04/21 02:06:46;;;;;;;23.98;17.92;;;;;;;;;;5019382;28;20128;-74
2022/04/21 02:09:11;;;;;;;25.30;17.27;;;;;;;;;;5037117;28;20057;-75
2022/04/21 02:11:37;;;;;;;24.02;17.05;;;;;;;;;;5037122;28;20025;-74
2022/04/21 02:14:03;;;;;;;27.07;17.63;;;;;;;;;;5037338;28;20026;-74
2022/04/21 02:16:28;;;;;;;26.73;18.83;;;;;;;;;;5037003;28;20271;-74
2022/04/21 02:18:53;;;;;;;24.90;17.03;;;;;;;;;;5036716;28;20021;-73
2022/04/21 02:21:18;;;;;;;24.50;17.25;;;;;;;;;;5037095;28;20268;-72
2022/04/21 02:23:44;;;;;;;23.20;16.80;;;;;;;;;;5036933;28;20025;-72
2022/04/21 02:26:11;;;;;;;24.05;17.25;;;;;;;;;;5036985;28;20022;-71
2022/04/21 02:28:38;;;;;;;24.65;18.17;;;;;;;;;;5036900;28;20013;-70
2022/04/21 02:31:04;;;;;;;24.10;17.88;;;;;;;;;;5036742;28;20034;-70
2022/04/21 02:33:29;;;;;;;26.55;18.48;;;;;;;;;;5035491;28;20046;-72
2022/04/21 02:35:55;;;;;;;21.95;16.58;;;;;;;;;;5036693;28;20022;-72
2022/04/21 02:38:20;;;;;;;22.58;16.38;;;;;;;;;;5036641;28;20026;-78
2022/04/21 02:40:48;;;;;;;22.55;16.67;;;;;;;;;;5036354;28;20048;-79
2022/04/21 02:43:13;;;;;;;24.08;17.70;;;;;;;;;;5036823;28;20081;-78
2022/04/21 02:45:39;;;;;;;24.83;17.15;;;;;;;;;;5036497;28;20037;-79
2022/04/21 02:48:05;;;;;;;25.77;17.58;;;;;;;;;;5036169;28;20108;-80
2022/04/21 02:50:31;;;;;;;25.25;17.48;;;;;;;;;;5035568;28;20021;-76
2022/04/21 02:52:57;;;;;;;26.23;18.00;;;;;;;;;;5036344;28;20013;-77
2022/04/21 02:58:06;;;;;;;23.45;16.70;;;;;;;;;;5036466;28;20461;-71
2022/04/21 03:00:32;;;;;;;21.48;16.60;;;;;;;;;;5036528;28;20025;-70
2022/04/21 03:02:57;;;;;;;25.08;18.27;;;;;;;;;;5036709;28;20036;-71
2022/04/21 03:05:22;;;;;;;23.50;17.35;;;;;;;;;;5034680;28;20029;-71
2022/04/21 03:07:48;;;;;;;23.08;17.10;;;;;;;;;;5036050;28;20045;-71
2022/04/21 03:10:13;;;;;;;23.42;16.20;;;;;;;;;;5035197;28;20032;-71
2022/04/21 03:12:39;;;;;;;22.38;16.42;;;;;;;;;;5036398;28;20037;-73
2022/04/21 03:15:06;;;;;;;23.90;16.13;;;;;;;;;;5035992;28;20017;-73
2022/04/21 03:17:32;;;;;;;21.45;16.13;;;;;;;;;;5036270;28;20120;-73
2022/04/21 03:19:57;;;;;;;20.23;15.43;;;;;;;;;;5035897;28;20080;-73
2022/04/21 03:25:07;;;;;;;23.65;16.38;;;;;;;;;;5035830;28;20038;-73
2022/04/21 03:27:34;;;;;;;23.13;16.33;;;;;;;;;;5035710;28;20021;-73
2022/04/21 03:30:00;;;;;;;24.38;16.98;;;;;;;;;;5035668;28;20412;-73
2022/04/21 03:32:26;;;;;;;22.67;16.52;;;;;;;;;;5035256;28;20051;-74
2022/04/21 03:34:53;;;;;;;23.67;16.98;;;;;;;;;;5035561;28;20081;-70
2022/04/21 03:37:20;;;;;;;25.95;17.30;;;;;;;;;;5035706;28;20068;-71
2022/04/21 03:39:46;;;;;;;24.45;16.85;;;;;;;;;;5017995;28;20041;-72
2022/04/21 03:42:39;;;;;;;24.67;17.35;;;;;;;;;;5034730;28;20040;-72
2022/04/21 03:45:04;;;;;;;24.73;16.90;;;;;;;;;;5033438;28;20117;-72
2022/04/21 03:47:30;;;;;;;24.23;18.13;;;;;;;;;;5035378;28;20037;-70
2022/04/21 03:49:56;;;;;;;27.08;18.48;;;;;;;;;;5035543;28;20049;-71
2022/04/21 03:52:22;;;;;;;26.95;18.95;;;;;;;;;;5017162;28;20024;-73
2022/04/21 03:54:48;;;;;;;26.65;19.23;;;;;;;;;;5035026;28;20033;-73
2022/04/21 03:57:13;;;;;;;30.85;20.00;;;;;;;;;;5017344;28;20030;-73
2022/04/21 03:59:39;;;;;;;29.42;20.10;;;;;;;;;;5035156;28;20064;-72
2022/04/21 04:02:05;;;;;;;28.08;19.63;;;;;;;;;;5017161;28;20028;-72
2022/04/21 04:04:34;;;;;;;30.63;20.65;;;;;;;;;;5016870;28;20029;-77
2022/04/21 04:12:33;;;;;;;30.40;21.67;;;;;;;;;;5017171;28;20047;-73
2022/04/21 04:14:59;;;;;;;32.63;22.05;;;;;;;;;;5034660;28;20026;-73
2022/04/21 04:17:25;;;;;;;33.20;23.30;;;;;;;;;;5034690;28;20366;-73
2022/04/21 04:19:50;;;;;;;36.88;23.63;;;;;;;;;;5034661;28;20067;-73
2022/04/21 04:22:16;;;;;;;36.92;25.30;;;;;;;;;;5035034;28;20036;-79
2022/04/21 04:24:43;;;;;;;35.75;24.35;;;;;;;;;;5034646;28;20030;-75
2022/04/21 04:27:08;;;;;;;32.78;23.10;;;;;;;;;;5034514;28;20030;-73
2022/04/21 04:29:34;;;;;;;29.97;20.27;;;;;;;;;;5034516;28;20318;-72
2022/04/21 04:32:01;;;;;;;26.67;19.40;;;;;;;;;;5034007;28;21037;-69
2022/04/21 04:34:26;;;;;;;29.27;19.92;;;;;;;;;;5033568;28;20037;-68
2022/04/21 04:36:55;;;;;;;30.33;21.15;;;;;;;;;;5033771;28;20482;-74
2022/04/21 04:39:29;;;;;;;29.25;21.63;;;;;;;;;;5034218;28;20040;-81
2022/04/21 04:44:38;;;;;;;28.55;20.95;;;;;;;;;;5034618;28;20048;-79
2022/04/21 04:47:05;;;;;;;27.85;21.30;;;;;;;;;;5015973;28;20034;-73
2022/04/21 04:49:31;;;;;;;31.23;21.75;;;;;;;;;;5015381;28;20049;-70
2022/04/21 04:51:56;;;;;;;30.67;21.50;;;;;;;;;;5033449;28;20067;-74
2022/04/21 04:54:21;;;;;;;31.27;21.63;;;;;;;;;;5033699;28;20033;-74
2022/04/21 04:56:49;;;;;;;31.25;20.95;;;;;;;;;;5034211;28;20022;-74
2022/04/21 04:59:15;;;;;;;29.00;20.92;;;;;;;;;;5034318;28;20033;-74
2022/04/21 05:01:41;;;;;;;24.63;19.05;;;;;;;;;;5034264;28;20021;-74
2022/04/21 05:04:14;;;;;;;26.58;19.17;;;;;;;;;;5033984;28;20110;-74
2022/04/21 05:06:44;;;;;;;26.42;19.48;;;;;;;;;;5032693;28;20037;-74
2022/04/21 05:09:10;;;;;;;28.05;20.55;;;;;;;;;;5033851;28;20018;-70
2022/04/21 05:11:36;;;;;;;20.05;15.85;;;;;;;;;;5015193;28;20005;-72
2022/04/21 05:14:02;;;;;;;21.45;15.10;;;;;;;;;;5032131;28;20531;-71
2022/04/21 05:16:28;;;;;;;22.45;16.25;;;;;;;;;;5032452;28;20051;-72
2022/04/21 05:18:53;;;;;;;21.95;15.95;;;;;;;;;;5032374;28;20083;-72
2022/04/21 05:21:19;;;;;;;24.20;15.27;;;;;;;;;;5032311;28;20036;-72
2022/04/21 05:23:46;;;;;;;23.98;17.27;;;;;;;;;;5032404;28;20049;-72
2022/04/21 05:26:11;;;;;;;24.92;17.63;;;;;;;;;;5032513;28;20024;-71
2022/04/21 05:28:37;;;;;;;19.20;14.60;;;;;;;;;;5032357;28;20025;-72
2022/04/21 05:31:03;;;;;;;22.52;15.65;;;;;;;;;;5032314;28;20025;-71
2022/04/21 05:33:29;;;;;;;23.50;16.80;;;;;;;;;;5032147;28;20509;-71
2022/04/21 05:35:55;;;;;;;25.45;18.15;;;;;;;;;;5031190;28;20021;-72
2022/04/21 05:38:24;;;;;;;24.42;17.05;;;;;;;;;;5032261;28;20446;-71
2022/04/21 05:40:50;;;;;;;27.58;19.40;;;;;;;;;;5032220;28;20100;-71
2022/04/21 05:43:16;;;;;;;28.48;22.10;;;;;;;;;;5032207;28;20580;-71
2022/04/21 05:45:42;;;;;;;31.13;22.17;;;;;;;;;;5032181;28;20457;-71
2022/04/21 05:48:07;;;;;;;25.60;17.15;;;;;;;;;;5032041;28;20040;-70
2022/04/21 05:50:33;;;;;;;28.83;19.55;;;;;;;;;;5032217;28;20477;-70
2022/04/21 05:53:02;;;;;;;28.13;18.73;;;;;;;;;;5032147;28;20047;-70
2022/04/21 05:55:29;;;;;;;27.77;16.90;;;;;;;;;;5014758;28;20036;-71
2022/04/21 05:57:54;;;;;;;25.55;17.58;;;;;;;;;;5032104;28;20080;-71
2022/04/21 06:00:20;;;;;;;18.45;12.50;;;;;;;;;;5032054;28;20034;-70
2022/04/21 06:02:45;;;;;;;16.95;11.65;;;;;;;;;;5032075;28;20025;-70
2022/04/21 06:05:10;;;;;;;16.73;11.57;;;;;;;;;;5032003;28;20044;-70
2022/04/21 06:07:36;;;;;;;23.33;17.05;;;;;;;;;;5031965;28;20075;-71
2022/04/21 06:10:01;;;;;;;15.82;9.80;;;;;;;;;;5031928;28;20033;-70
2022/04/21 06:12:26;;;;;;;16.23;10.80;;;;;;;;;;5031981;28;20100;-70
2022/04/21 06:14:52;;;;;;;12.82;8.77;;;;;;;;;;5014319;28;20104;-70
2022/04/21 06:17:17;;;;;;;15.73;11.20;;;;;;;;;;5031922;28;20076;-71
2022/04/21 06:19:43;;;;;;;17.38;12.73;;;;;;;;;;5031928;28;20030;-70
2022/04/21 06:22:08;;;;;;;15.75;10.40;;;;;;;;;;5031826;28;20038;-70
2022/04/21 06:24:33;;;;;;;16.67;13.55;;;;;;;;;;5031785;28;20052;-71
2022/04/21 06:26:58;;;;;;;11.32;8.95;;;;;;;;;;5034696;28;20029;-70
2022/04/21 06:29:24;;;;;;;17.63;12.82;;;;;;;;;;5035366;28;20025;-71
2022/04/21 06:31:49;;;;;;;14.27;10.25;;;;;;;;;;5035336;28;20103;-70
2022/04/21 06:34:16;;;;;;;12.52;9.32;;;;;;;;;;5051619;28;20037;-71
2022/04/21 06:36:41;;;;;;;11.10;8.43;;;;;;;;;;5037342;28;20075;-71
2022/04/21 06:39:06;;;;;;;15.98;11.10;;;;;;;;;;5055177;28;20102;-71
2022/04/21 06:41:33;;;;;;;13.25;9.25;;;;;;;;;;5037392;28;20025;-71
2022/04/21 06:49:27;;;;;;;12.65;9.50;;;;;;;;;;5054950;28;20025;-71
2022/04/21 06:51:52;;;;;;;14.60;10.93;;;;;;;;;;5054901;28;20021;-71
2022/04/21 06:54:18;;;;;;;18.17;13.60;;;;;;;;;;5054903;28;20039;-71
2022/04/21 06:56:48;;;;;;;17.98;11.20;;;;;;;;;;5054849;28;20028;-71
2022/04/21 06:59:14;;;;;;;10.10;6.07;;;;;;;;;;5054902;28;20492;-71
2022/04/21 07:01:41;;;;;;;14.73;11.40;;;;;;;;;;5054918;28;20048;-71
2022/04/21 07:04:06;;;;;;;10.43;8.23;;;;;;;;;;5055058;28;20531;-71
2022/04/21 07:06:32;;;;;;;12.65;9.55;;;;;;;;;;5020366;28;20025;-71
2022/04/21 07:08:57;;;;;;;13.55;9.52;;;;;;;;;;5054685;28;20032;-71
2022/04/21 07:11:22;;;;;;;7.88;6.68;;;;;;;;;;5054602;28;20481;-71
2022/04/21 07:13:48;;;;;;;16.15;11.18;;;;;;;;;;5053354;28;20035;-72
2022/04/21 07:16:14;;;;;;;11.65;9.75;;;;;;;;;;5054498;28;20025;-71
2022/04/21 07:18:39;;;;;;;14.82;10.45;;;;;;;;;;5054491;28;20043;-74
2022/04/21 07:21:07;;;;;;;13.10;10.57;;;;;;;;;;5036604;28;20071;-74
2022/04/21 07:23:34;;;;;;;12.70;9.43;;;;;;;;;;5054389;28;20367;-77
2022/04/21 07:25:59;;;;;;;9.93;7.85;;;;;;;;;;5036408;28;20054;-77
2022/04/21 07:28:24;;;;;;;12.82;9.43;;;;;;;;;;5054345;28;20532;-78
2022/04/21 07:30:50;;;;;;;11.15;9.65;;;;;;;;;;5054267;28;20017;-78
2022/04/21 07:33:16;;;;;;;9.30;6.30;;;;;;;;;;5054095;28;20048;-78
2022/04/21 07:35:41;;;;;;;12.30;8.57;;;;;;;;;;5054168;28;20025;-77
2022/04/21 07:38:07;;;;;;;13.52;9.25;;;;;;;;;;5052512;28;20179;-73
2022/04/21 07:40:32;;;;;;;12.57;8.83;;;;;;;;;;5054077;28;20029;-79
2022/04/21 07:43:02;;;;;;;17.33;9.65;;;;;;;;;;5036189;28;20290;-79
2022/04/21 07:45:27;;;;;;;15.02;9.25;;;;;;;;;;5053998;28;20021;-78
2022/04/21 07:47:53;;;;;;;9.45;7.88;;;;;;;;;;5036057;28;20384;-76
2022/04/21 07:50:18;;;;;;;12.25;8.02;;;;;;;;;;5036044;28;20025;-76
2022/04/21 07:55:27;;;;;;;11.30;8.05;;;;;;;;;;5053708;28;20048;-77
2022/04/21 07:57:55;;;;;;;11.73;8.95;;;;;;;;;;5053693;28;20430;-77
2022/04/21 08:00:20;;;;;;;9.65;8.30;;;;;;;;;;5053683;28;20040;-77
2022/04/21 08:02:46;;;;;;;9.32;7.25;;;;;;;;;;5035940;28;20384;-77
2022/04/21 08:05:12;;;;;;;11.88;9.27;;;;;;;;;;5053531;28;20033;-77
2022/04/21 08:07:38;;;;;;;9.95;8.15;;;;;;;;;;5035469;28;20107;-77
2022/04/21 08:10:04;;;;;;;10.10;8.18;;;;;;;;;;5053782;28;20052;-78
2022/04/21 08:12:51;;;;;;;8.50;6.28;;;;;;;;;;5035547;28;20052;-78
2022/04/21 08:15:23;;;;;;;9.73;7.63;;;;;;;;;;5035501;28;20059;-78
2022/04/21 08:17:49;;;;;;;8.27;7.00;;;;;;;;;;5053328;28;20554;-78
2022/04/21 08:20:14;;;;;;;8.55;7.30;;;;;;;;;;5053249;28;20029;-77
2022/04/21 08:22:40;;;;;;;8.68;7.50;;;;;;;;;;5053262;28;20075;-77
2022/04/21 08:33:19;;;;;;;10.90;9.68;;;;;;;;;;5052835;28;20404;-78
2022/04/21 08:35:45;;;;;;;12.82;10.02;;;;;;;;;;5053037;28;20028;-78
2022/04/21 08:38:11;;;;;;;9.90;8.70;;;;;;;;;;5052965;28;20040;-78
2022/04/21 08:40:37;;;;;;;15.55;10.40;;;;;;;;;;5052960;28;20039;-77
2022/04/21 08:43:16;;;;;;;12.90;10.13;;;;;;;;;;5052860;28;20025;-77
2022/04/21 08:45:45;;;;;;;13.95;11.55;;;;;;;;;;5035105;28;20373;-65
2022/04/21 08:48:11;;;;;;;17.13;12.52;;;;;;;;;;5034147;28;20028;-75
2022/04/21 08:50:37;;;;;;;12.95;10.27;;;;;;;;;;5052743;28;20140;-75
2022/04/21 08:53:03;;;;;;;12.70;8.73;;;;;;;;;;5034976;28;20472;-75
2022/04/21 08:55:28;;;;;;;19.02;13.20;;;;;;;;;;5053278;28;20059;-75
2022/04/21 08:57:54;;;;;;;14.93;12.13;;;;;;;;;;5052638;28;20021;-75
2022/04/21 09:00:20;;;;;;;14.25;10.88;;;;;;;;;;5034912;28;20524;-75
2022/04/21 09:02:47;;;;;;;13.27;11.88;;;;;;;;;;5034744;28;20082;-75
2022/04/21 09:05:12;;;;;;;15.85;11.20;;;;;;;;;;5052471;28;20055;-75
2022/04/21 09:07:45;;;;;;;11.50;9.50;;;;;;;;;;5052420;28;20468;-75
2022/04/21 09:10:14;;;;;;;11.90;7.20;;;;;;;;;;5052389;28;20024;-75
2022/04/21 09:12:50;;;;;;;11.07;8.37;;;;;;;;;;5052457;28;20120;-75
2022/04/21 09:15:16;;;;;;;17.27;11.35;;;;;;;;;;5052352;28;20041;-76
2022/04/21 09:17:47;;;;;;;13.95;10.85;;;;;;;;;;5051362;28;20060;-75
2022/04/21 09:20:13;;;;;;;14.18;10.45;;;;;;;;;;5034629;28;20036;-76
2022/04/21 09:22:40;;;;;;;15.45;10.23;;;;;;;;;;5034554;28;20045;-75
2022/04/21 09:25:05;;;;;;;13.13;10.15;;;;;;;;;;5052251;28;20036;-75
2022/04/21 09:27:41;;;;;;;11.55;9.13;;;;;;;;;;5050993;28;20465;-75
2022/04/21 09:30:10;;;;;;;13.00;9.25;;;;;;;;;;5052278;28;20112;-75
2022/04/21 09:32:50;;;;;;;12.38;9.50;;;;;;;;;;5052097;28;20112;-75
2022/04/21 09:35:16;;;;;;;16.45;10.68;;;;;;;;;;5052284;28;20032;-76
2022/04/21 09:37:45;;;;;;;11.70;9.15;;;;;;;;;;5052256;28;20025;-76
2022/04/21 09:40:11;;;;;;;10.88;8.43;;;;;;;;;;5052200;28;20111;-76
2022/04/21 09:42:36;;;;;;;11.10;8.57;;;;;;;;;;5052204;28;20143;-75
2022/04/21 09:47:49;;;;;;;11.20;9.10;;;;;;;;;;5052076;28;20044;-75
2022/04/21 09:50:15;;;;;;;12.05;9.02;;;;;;;;;;5052723;28;20028;-75
2022/04/21 09:52:47;;;;;;;11.02;9.23;;;;;;;;;;5052708;28;20025;-75
2022/04/21 09:55:39;;;;;;;10.27;8.25;;;;;;;;;;5050803;28;20029;-75
2022/04/21 09:58:06;;;;;;;12.85;9.98;;;;;;;;;;5049872;28;20048;-76
2022/04/21 10:00:32;;;;;;;13.82;10.05;;;;;;;;;;5054587;28;20151;-75
2022/04/21 10:02:59;;;;;;;14.95;10.10;;;;;;;;;;5054764;28;20473;-76
2022/04/21 10:05:25;;;;;;;12.93;9.15;;;;;;;;;;5055925;28;20025;-76
2022/04/21 10:07:52;;;;;;;12.10;9.93;;;;;;;;;;5055731;28;20473;-75
2022/04/21 10:10:17;;;;;;;11.07;8.57;;;;;;;;;;5055803;28;20561;-75
2022/04/21 10:12:43;;;;;;;10.02;8.35;;;;;;;;;;5055739;28;20056;-75
2022/04/21 10:15:09;;;;;;;9.07;8.18;;;;;;;;;;5055698;28;20519;-75
2022/04/21 10:17:34;;;;;;;10.98;8.70;;;;;;;;;;5055657;28;20044;-75
2022/04/21 10:20:00;;;;;;;12.40;8.82;;;;;;;;;;5055634;28;20020;-76
2022/04/21 10:22:27;;;;;;;11.20;8.15;;;;;;;;;;5037655;28;20036;-75
2022/04/21 10:24:58;;;;;;;11.57;8.10;;;;;;;;;;5055505;28;20071;-76
2022/04/21 10:27:37;;;;;;;11.23;8.57;;;;;;;;;;5055441;28;20029;-75
2022/04/21 10:30:10;;;;;;;10.23;7.53;;;;;;;;;;5055390;28;20032;-76
2022/04/21 10:32:47;;;;;;;7.40;6.65;;;;;;;;;;5055429;28;20091;-77
2022/04/21 10:35:34;;;;;;;9.73;7.80;;;;;;;;;;5055327;28;20041;-77
2022/04/21 10:38:14;;;;;;;9.85;7.72;;;;;;;;;;5033776;28;20484;-77
2022/04/21 10:40:40;;;;;;;;;;;;;;;;;;5037764;28;20472;-77
2022/04/21 10:43:05;;;;;;;6.72;6.03;;;;;;;;;;5055163;28;19912;-77
2022/04/21 10:45:31;;;;;;;7.20;6.50;;;;;;;;;;5037315;28;20362;-77
2022/04/21 10:48:08;;;;;;;8.10;6.75;;;;;;;;;;5055018;28;20032;-77
2022/04/21 10:50:34;;;;;;;7.35;6.13;;;;;;;;;;5055029;28;20028;-77
2022/04/21 10:58:33;;;;;;;7.10;5.97;;;;;;;;;;5054894;28;20050;-77
2022/04/21 11:01:18;;;;;;;9.10;6.60;;;;;;;;;;5037017;28;20033;-77
2022/04/21 11:03:44;;;;;;;48.15;21.77;;;;;;;;;;5054729;28;20029;-77
2022/04/21 11:06:10;;;;;;;9.50;7.10;;;;;;;;;;5054572;28;20082;-77
2022/04/21 11:08:35;;;;;;;7.50;6.05;;;;;;;;;;5054704;28;20103;-77
2022/04/21 11:11:01;;;;;;;27.38;16.25;;;;;;;;;;5036442;28;20092;-77
2022/04/21 11:13:39;;;;;;;11.43;8.07;;;;;;;;;;5036699;28;20116;-77
2022/04/21 11:16:04;;;;;;;12.68;8.68;;;;;;;;;;5054518;28;20031;-77
2022/04/21 11:18:33;;;;;;;13.80;10.02;;;;;;;;;;5054496;28;20021;-75
2022/04/21 11:21:18;;;;;;;14.15;9.70;;;;;;;;;;5054469;28;20028;-76
2022/04/21 11:23:43;;;;;;;327.65;152.15;;;;;;;;;;5054381;28;20029;-81
2022/04/21 11:26:09;;;;;;;29.03;18.57;;;;;;;;;;5054315;28;20027;-77
2022/04/21 11:28:34;;;;;;;16.75;12.07;;;;;;;;;;5036536;28;20259;-74
2022/04/21 11:31:00;;;;;;;88.60;54.47;;;;;;;;;;5036386;28;20448;-76
2022/04/21 11:33:26;;;;;;;148.18;93.38;;;;;;;;;;5054214;28;20079;-77
2022/04/21 11:36:07;;;;;;;108.47;78.90;;;;;;;;;;5054176;28;20052;-77
2022/04/21 11:38:33;;;;;;;61.42;54.83;;;;;;;;;;5036292;28;20079;-77
2022/04/21 11:41:02;;;;;;;51.88;46.28;;;;;;;;;;5054097;28;20025;-77
2022/04/21 11:43:28;;;;;;;113.10;95.60;;;;;;;;;;5054001;28;20082;-76
2022/04/21 11:45:56;;;;;;;18.40;16.48;;;;;;;;;;5053999;28;20021;-75
2022/04/21 11:48:26;;;;;;;68.63;37.53;;;;;;;;;;5053823;28;20048;-76
2022/04/21 11:50:53;;;;;;;29.60;19.75;;;;;;;;;;5053832;28;20083;-76
2022/04/21 11:53:19;;;;;;;104.63;52.40;;;;;;;;;;5053879;28;20009;-76
2022/04/21 11:55:44;;;;;;;45.35;29.38;;;;;;;;;;5053819;28;20025;-76
2022/04/21 11:58:10;;;;;;;28.85;18.60;;;;;;;;;;5035956;28;20388;-76
2022/04/21 12:06:29;;;;;;;13.43;11.23;;;;;;;;;;5053495;28;20037;-77
2022/04/21 12:08:55;;;;;;;5.82;5.15;;;;;;;;;;5052704;28;20033;-77
2022/04/21 12:11:22;;;;;;;6.10;5.50;;;;;;;;;;5053489;28;20017;-76
2022/04/21 12:13:48;;;;;;;20.60;18.50;;;;;;;;;;5035716;28;20461;-77
2022/04/21 12:16:34;;;;;;;22.88;20.48;;;;;;;;;;5035527;28;20025;-77
2022/04/21 12:19:08;;;;;;;41.05;36.72;;;;;;;;;;5053349;28;20037;-77
2022/04/21 12:21:34;;;;;;;6.93;6.28;;;;;;;;;;5053334;28;20028;-77
2022/04/21 12:24:16;;;;;;;12.68;11.38;;;;;;;;;;5052336;28;20147;-77
2022/04/21 12:26:51;;;;;;;9.05;8.25;;;;;;;;;;5053145;28;20508;-77
2022/04/21 12:29:17;;;;;;;15.90;9.40;;;;;;;;;;5035451;28;20044;-77
2022/04/21 12:31:43;;;;;;;14.70;13.20;;;;;;;;;;5035265;28;20013;-75
2022/04/21 12:34:10;;;;;;;10.55;9.25;;;;;;;;;;5052937;28;20476;-74
2022/04/21 12:36:36;;;;;;;8.38;7.57;;;;;;;;;;5053623;28;20473;-74
2022/04/21 12:39:02;;;;;;;11.10;9.07;;;;;;;;;;5053205;28;20017;-75
2022/04/21 12:41:28;;;;;;;8.48;7.43;;;;;;;;;;5053027;28;20029;-75
2022/04/21 12:43:53;;;;;;;26.13;12.10;;;;;;;;;;5053203;28;20047;-76
2022/04/21 12:46:19;;;;;;;12.40;8.30;;;;;;;;;;5052825;28;20040;-76
2022/04/21 12:48:48;;;;;;;27.90;13.50;;;;;;;;;;5052884;28;20384;-77
2022/04/21 12:51:19;;;;;;;12.57;8.40;;;;;;;;;;5052845;28;20029;-76
2022/04/21 12:53:44;;;;;;;;;;;;;;;;;;5035499;28;20033;-76
2022/04/21 12:56:10;;;;;;;8.50;6.70;;;;;;;;;;5053534;28;19912;-76
2022/04/21 12:58:36;;;;;;;10.07;7.22;;;;;;;;;;5054021;28;20267;-76
2022/04/21 13:01:02;;;;;;;8.38;6.70;;;;;;;;;;5053716;28;20017;-76
2022/04/21 13:03:28;;;;;;;13.00;7.90;;;;;;;;;;5053091;28;20469;-76
2022/04/21 13:05:55;;;;;;;12.48;7.25;;;;;;;;;;5053596;28;20028;-76
2022/04/21 13:08:27;;;;;;;8.75;6.40;;;;;;;;;;5053520;28;20029;-76
2022/04/21 13:10:53;;;;;;;6.15;5.55;;;;;;;;;;5053627;28;20025;-76
2022/04/21 13:13:18;;;;;;;5.95;5.50;;;;;;;;;;5053661;28;20013;-76
2022/04/21 13:15:44;;;;;;;7.25;6.53;;;;;;;;;;5053553;28;20031;-76
2022/04/21 13:18:10;;;;;;;8.05;6.43;;;;;;;;;;5053529;28;20107;-76
2022/04/21 13:23:23;;;;;;;7.85;6.55;;;;;;;;;;5053725;28;20025;-75
2022/04/21 13:25:49;;;;;;;16.42;8.68;;;;;;;;;;5035685;28;20021;-75
2022/04/21 13:28:14;;;;;;;8.32;7.32;;;;;;;;;;5035503;28;20029;-75
2022/04/21 13:30:40;;;;;;;6.93;6.20;;;;;;;;;;5053442;28;20048;-75
2022/04/21 13:33:24;;;;;;;6.95;6.25;;;;;;;;;;5032464;28;20063;-76
2022/04/21 13:35:53;;;;;;;10.15;7.85;;;;;;;;;;5036897;28;20112;-75
2022/04/21 13:38:19;;;;;;;6.88;6.28;;;;;;;;;;5037844;28;20472;-75
2022/04/21 13:40:44;;;;;;;9.18;6.78;;;;;;;;;;5037498;28;20025;-75
2022/04/21 13:43:10;;;;;;;8.60;6.88;;;;;;;;;;5037467;28;20021;-75
2022/04/21 13:45:41;;;;;;;6.18;5.57;;;;;;;;;;5037445;28;20029;-75
2022/04/21 13:48:08;;;;;;;5.57;5.07;;;;;;;;;;5036163;28;20091;-75
2022/04/21 13:50:33;;;;;;;5.95;5.45;;;;;;;;;;5037903;28;20014;-74
2022/04/21 13:52:58;;;;;;;6.15;5.65;;;;;;;;;;5037591;28;20032;-75
2022/04/21 13:55:24;;;;;;;6.32;5.72;;;;;;;;;;5037277;28;20028;-74
2022/04/21 13:57:49;;;;;;;5.97;5.47;;;;;;;;;;5037503;28;20116;-74
2022/04/21 14:00:15;;;;;;;6.68;6.05;;;;;;;;;;5037190;28;20461;-74
2022/04/21 14:02:40;;;;;;;5.50;5.03;;;;;;;;;;5036365;28;20397;-75
2022/04/21 14:05:06;;;;;;;5.95;5.45;;;;;;;;;;5036226;28;20029;-74
2022/04/21 14:07:31;;;;;;;6.18;5.70;;;;;;;;;;5035921;28;20025;-74
2022/04/21 14:09:58;;;;;;;5.60;5.10;;;;;;;;;;5037380;28;20018;-75
2022/04/21 14:12:23;;;;;;;6.07;5.57;;;;;;;;;;5030921;28;20128;-75
2022/04/21 14:14:48;;;;;;;6.07;5.57;;;;;;;;;;5036099;28;20100;-75
2022/04/21 14:17:17;;;;;;;6.97;6.38;;;;;;;;;;5035690;28;20065;-75
2022/04/21 14:19:43;;;;;;;6.60;6.00;;;;;;;;;;5036333;28;20441;-75
2022/04/21 14:22:08;;;;;;;7.68;6.47;;;;;;;;;;5034656;28;20124;-71
2022/04/21 14:24:34;;;;;;;6.00;5.47;;;;;;;;;;5034619;28;20416;-71
2022/04/21 14:27:00;;;;;;;6.72;5.78;;;;;;;;;;5035060;28;20033;-71
2022/04/21 14:29:25;;;;;;;6.78;6.13;;;;;;;;;;5033505;28;20472;-71
2022/04/21 14:31:51;;;;;;;5.97;5.47;;;;;;;;;;5032920;28;20026;-70
2022/04/21 14:34:16;;;;;;;6.10;5.57;;;;;;;;;;5033257;28;20045;-70
2022/04/21 14:36:42;;;;;;;5.63;5.18;;;;;;;;;;5032333;28;20037;-70
2022/04/21 14:44:39;;;;;;;7.10;6.45;;;;;;;;;;5032833;28;20045;-71
2022/04/21 14:47:05;;;;;;;6.32;5.20;;;;;;;;;;5033322;28;20685;-71
2022/04/21 14:49:30;;;;;;;6.43;5.82;;;;;;;;;;5032635;28;20469;-71
2022/04/21 14:51:56;;;;;;;6.45;5.95;;;;;;;;;;5031452;28;20020;-71
2022/04/21 14:54:21;;;;;;;6.43;5.85;;;;;;;;;;5031799;28;20033;-71
2022/04/21 14:56:47;;;;;;;6.90;6.20;;;;;;;;;;5046601;28;20028;-71
2022/04/21 14:59:13;;;;;;;7.25;6.65;;;;;;;;;;5031505;28;20350;-72
2022/04/21 15:01:38;;;;;;;8.13;6.60;;;;;;;;;;5033136;28;20109;-72
2022/04/21 15:04:07;;;;;;;9.55;8.65;;;;;;;;;;5033247;28;20031;-71
2022/04/21 15:06:33;;;;;;;8.73;7.82;;;;;;;;;;5033152;28;20416;-71
2022/04/21 15:08:59;;;;;;;9.75;8.85;;;;;;;;;;5033179;28;20018;-71
2022/04/21 15:11:24;;;;;;;7.35;6.68;;;;;;;;;;5031917;28;20124;-71
2022/04/21 15:13:49;;;;;;;7.32;6.65;;;;;;;;;;5030057;28;20083;-72
2022/04/21 15:16:15;;;;;;;8.98;7.65;;;;;;;;;;5031450;28;20021;-72
2022/04/21 15:18:40;;;;;;;14.18;12.10;;;;;;;;;;5031295;28;20029;-71
2022/04/21 15:21:06;;;;;;;15.60;13.95;;;;;;;;;;5030008;28;20552;-72
2022/04/21 15:23:32;;;;;;;13.43;11.52;;;;;;;;;;5031944;28;20396;-72